createdAt,value
2023-02-10T00:03:08.322Z,53.82
2023-02-10T00:06:00.600Z,53.97
2023-02-10T00:08:54.833Z,53.94
2023-02-10T00:12:00.722Z,54.03
2023-02-10T00:14:35.845Z,53.97
2023-02-10T00:17:28.080Z,53.94
2023-02-10T00:20:20.745Z,53.94
2023-02-10T00:23:13.132Z,53.99
2023-02-10T00:26:08.442Z,53.90
2023-02-10T00:29:00.751Z,53.98
2023-02-10T00:31:44.136Z,53.93
2023-02-10T00:34:20.397Z,53.87
2023-02-10T00:37:02.090Z,53.90
2023-02-10T00:39:56.199Z,53.96
2023-02-10T00:42:28.600Z,53.99
2023-02-10T00:45:03.732Z,53.87
2023-02-10T00:47:41.967Z,53.98
2023-02-10T00:50:34.282Z,53.96
2023-02-10T00:53:26.755Z,53.88
2023-02-10T00:56:19.289Z,53.84
2023-02-10T00:58:54.521Z,53.86
2023-02-10T01:01:46.909Z,53.66
2023-02-10T01:04:22.537Z,53.73
2023-02-10T01:07:14.756Z,53.72
2023-02-10T01:10:07.968Z,53.81
2023-02-10T01:13:01.929Z,53.79
2023-02-10T01:15:47.561Z,53.80
2023-02-10T01:18:40.303Z,53.70
2023-02-10T01:21:34.128Z,53.83
2023-02-10T01:24:26.334Z,53.86
2023-02-10T01:27:18.468Z,53.72
2023-02-10T01:30:12.690Z,53.74
2023-02-10T01:33:04.973Z,53.81
2023-02-10T01:35:57.228Z,53.74
2023-02-10T01:38:49.606Z,53.64
2023-02-10T01:41:41.950Z,53.48
2023-02-10T01:45:21.954Z,53.62
2023-02-10T01:47:58.357Z,53.78
2023-02-10T01:50:54.655Z,53.72
2023-02-10T01:53:46.042Z,53.77
2023-02-10T01:56:38.489Z,53.79
2023-02-10T01:59:34.030Z,53.83
2023-02-10T02:02:26.764Z,53.70
2023-02-10T02:05:36.922Z,53.68
2023-02-10T02:08:19.407Z,53.80
2023-02-10T02:11:21.160Z,53.96
2023-02-10T02:14:27.100Z,53.83
2023-02-10T02:17:14.140Z,53.90
2023-02-10T02:20:36.491Z,53.93
2023-02-10T02:24:15.728Z,53.85
2023-02-10T02:27:48.842Z,53.85
2023-02-10T02:30:57.777Z,53.76
2023-02-10T02:33:54.530Z,53.77
2023-02-10T02:36:59.791Z,53.81
2023-02-10T02:39:54.295Z,53.78
2023-02-10T02:42:46.745Z,53.81
2023-02-10T02:45:32.432Z,53.97
2023-02-10T02:48:39.325Z,53.84
2023-02-10T02:51:22.447Z,53.79
2023-02-10T02:54:26.877Z,53.81
2023-02-10T02:57:24.441Z,53.82
2023-02-10T03:00:21.661Z,53.79
2023-02-10T03:03:14.198Z,53.94
2023-02-10T03:06:06.733Z,53.87
2023-02-10T03:08:59.064Z,54.02
2023-02-10T03:11:51.212Z,53.85
2023-02-10T03:14:39.368Z,53.95
2023-02-10T03:17:31.656Z,53.96
2023-02-10T03:20:23.913Z,53.85
2023-02-10T03:23:16.118Z,54.02
2023-02-10T03:26:08.483Z,54.14
2023-02-10T03:29:00.710Z,54.11
2023-02-10T03:31:53.367Z,54.19
2023-02-10T03:34:45.547Z,54.27
2023-02-10T03:37:37.761Z,54.30
2023-02-10T03:40:29.944Z,54.38
2023-02-10T03:43:23.554Z,54.42
2023-02-10T03:46:15.804Z,54.43
2023-02-10T03:49:08.442Z,54.39
2023-02-10T03:52:00.700Z,54.38
2023-02-10T03:54:52.928Z,54.46
2023-02-10T03:57:45.404Z,54.47
2023-02-10T04:00:38.053Z,54.46
2023-02-10T04:03:12.803Z,54.37
2023-02-10T04:06:05.200Z,54.49
2023-02-10T04:08:57.406Z,54.55
2023-02-10T04:11:32.033Z,54.52
2023-02-10T04:14:24.340Z,54.53
2023-02-10T04:17:16.773Z,54.55
2023-02-10T04:20:11.019Z,54.53
2023-02-10T04:23:03.343Z,54.49
2023-02-10T04:25:55.738Z,54.46
2023-02-10T04:28:48.036Z,54.47
2023-02-10T04:31:40.345Z,54.57
2023-02-10T04:34:32.702Z,54.61
2023-02-10T04:37:24.964Z,54.52
2023-02-10T04:40:17.437Z,54.48
2023-02-10T04:43:10.005Z,54.59
2023-02-10T04:46:03.474Z,54.57
2023-02-10T04:48:38.608Z,54.59
2023-02-10T04:51:30.746Z,54.61
2023-02-10T04:54:23.116Z,54.52
2023-02-10T04:57:15.236Z,54.59
2023-02-10T05:00:09.070Z,54.58
2023-02-10T05:03:01.423Z,54.62
2023-02-10T05:05:53.719Z,54.58
2023-02-10T05:08:46.861Z,54.63
2023-02-10T05:11:38.949Z,54.60
2023-02-10T05:14:31.972Z,54.63
2023-02-10T05:17:24.202Z,54.57
2023-02-10T05:20:01.850Z,54.64
2023-02-10T05:22:54.347Z,54.64
2023-02-10T05:25:50.102Z,54.68
2023-02-10T05:28:42.455Z,54.67
2023-02-10T05:31:35.368Z,54.71
2023-02-10T05:34:28.127Z,54.68
2023-02-10T05:37:20.472Z,54.79
2023-02-10T05:40:13.981Z,54.64
2023-02-10T05:43:06.126Z,54.63
2023-02-10T05:45:58.451Z,54.63
2023-02-10T05:48:50.621Z,54.77
2023-02-10T05:51:43.078Z,54.75
2023-02-10T05:54:35.936Z,54.75
2023-02-10T05:57:28.297Z,54.73
2023-02-10T06:00:21.734Z,54.76
2023-02-10T06:03:13.956Z,54.75
2023-02-10T06:06:06.843Z,54.66
2023-02-10T06:08:58.976Z,54.72
2023-02-10T06:11:51.452Z,54.69
2023-02-10T06:14:43.878Z,54.67
2023-02-10T06:17:32.514Z,54.66
2023-02-10T06:20:25.008Z,54.68
2023-02-10T06:23:14.699Z,54.78
2023-02-10T06:25:56.003Z,54.68
2023-02-10T06:28:48.255Z,54.69
2023-02-10T06:31:40.516Z,54.69
2023-02-10T06:34:32.828Z,54.71
2023-02-10T06:37:25.290Z,54.66
2023-02-10T06:40:11.073Z,54.72
2023-02-10T06:43:03.314Z,54.62
2023-02-10T06:45:44.275Z,54.73
2023-02-10T06:48:36.595Z,54.77
2023-02-10T06:51:08.873Z,54.57
2023-02-10T06:53:50.830Z,54.53
2023-02-10T06:56:42.900Z,54.62
2023-02-10T06:59:35.618Z,54.68
2023-02-10T07:02:28.144Z,54.53
2023-02-10T07:05:20.728Z,54.59
2023-02-10T07:08:12.930Z,54.53
2023-02-10T07:10:53.776Z,54.41
2023-02-10T07:13:45.846Z,54.30
2023-02-10T07:16:38.061Z,54.23
2023-02-10T07:19:31.505Z,54.23
2023-02-10T07:22:23.662Z,54.07
2023-02-10T07:24:58.673Z,54.06
2023-02-10T07:27:50.787Z,54.05
2023-02-10T07:30:43.020Z,53.82
2023-02-10T07:33:35.125Z,53.89
2023-02-10T07:36:18.200Z,53.90
2023-02-10T07:39:12.214Z,53.78
2023-02-10T07:42:04.401Z,53.64
2023-02-10T07:44:36.549Z,53.48
2023-02-10T07:47:28.609Z,53.52
2023-02-10T07:50:21.075Z,53.50
2023-02-10T07:53:13.346Z,53.73
2023-02-10T07:56:05.705Z,52.79
2023-02-10T07:58:58.056Z,49.79
2023-02-10T08:01:50.174Z,46.62
2023-02-10T08:04:42.359Z,43.92
2023-02-10T08:07:34.497Z,41.96
2023-02-10T08:10:15.253Z,40.45
2023-02-10T08:13:07.405Z,38.25
2023-02-10T08:15:59.485Z,37.31
2023-02-10T08:18:51.701Z,35.87
2023-02-10T08:21:43.920Z,35.15
2023-02-10T08:24:35.988Z,34.28
2023-02-10T08:27:29.877Z,33.29
2023-02-10T08:30:22.496Z,32.75
2023-02-10T08:33:14.649Z,31.92
2023-02-10T08:36:10.227Z,31.18
2023-02-10T08:38:53.329Z,30.61
2023-02-10T08:41:45.396Z,29.87
2023-02-10T08:44:37.764Z,29.59
2023-02-10T08:47:30.140Z,29.43
2023-02-10T08:50:22.526Z,29.62
2023-02-10T08:53:14.646Z,30.15
2023-02-10T08:56:09.534Z,30.14
2023-02-10T08:58:58.385Z,30.19
2023-02-10T09:01:50.450Z,29.87
2023-02-10T09:04:43.697Z,29.81
2023-02-10T09:07:36.368Z,29.69
2023-02-10T09:10:28.598Z,29.46
2023-02-10T09:13:10.824Z,29.43
2023-02-10T09:16:03.195Z,29.35
2023-02-10T09:18:55.975Z,29.44
2023-02-10T09:21:48.082Z,29.95
2023-02-10T09:24:24.144Z,30.18
2023-02-10T09:27:17.132Z,30.50
2023-02-10T09:30:11.044Z,31.28
2023-02-10T09:33:03.131Z,32.02
2023-02-10T09:35:37.905Z,32.83
2023-02-10T09:38:34.392Z,33.50
2023-02-10T09:41:42.106Z,33.86
2023-02-10T09:44:25.042Z,33.94
2023-02-10T09:47:36.869Z,34.41
2023-02-10T09:50:47.448Z,34.85
2023-02-10T09:53:40.578Z,35.22
2023-02-10T09:56:33.621Z,35.48
2023-02-10T09:59:27.059Z,36.27
2023-02-10T10:02:26.882Z,36.51
2023-02-10T10:05:26.266Z,36.73
2023-02-10T10:08:18.221Z,37.08
2023-02-10T10:11:32.745Z,37.50
2023-02-10T10:14:28.996Z,38.00
2023-02-10T10:17:43.395Z,38.46
2023-02-10T10:20:58.223Z,38.78
2023-02-10T10:24:07.907Z,39.34
2023-02-10T10:27:12.400Z,39.66
2023-02-10T10:30:13.377Z,39.78
2023-02-10T10:33:22.542Z,39.86
2023-02-10T10:36:04.776Z,40.28
2023-02-10T10:39:00.220Z,40.42
2023-02-10T10:41:53.739Z,40.60
2023-02-10T10:44:32.079Z,40.80
2023-02-10T10:47:14.889Z,40.92
2023-02-10T10:50:08.304Z,40.73
2023-02-10T10:52:46.139Z,41.13
2023-02-10T10:55:41.827Z,41.43
2023-02-10T10:58:38.749Z,41.62
2023-02-10T11:01:45.743Z,41.64
2023-02-10T11:04:41.485Z,41.58
2023-02-10T11:07:22.202Z,41.63
2023-02-10T11:10:04.869Z,41.77
2023-02-10T11:12:57.342Z,41.64
2023-02-10T11:15:50.443Z,41.69
2023-02-10T11:18:52.451Z,41.79
2023-02-10T11:21:46.011Z,41.69
2023-02-10T11:24:38.242Z,41.76
2023-02-10T11:27:30.402Z,41.91
2023-02-10T11:30:28.912Z,41.99
2023-02-10T11:33:26.801Z,42.02
2023-02-10T11:36:18.939Z,42.18
2023-02-10T11:39:21.672Z,42.36
2023-02-10T11:41:56.885Z,42.71
2023-02-10T11:44:32.354Z,42.88
2023-02-10T11:47:24.681Z,42.91
2023-02-10T11:50:27.047Z,43.12
2023-02-10T11:53:27.807Z,43.17
2023-02-10T11:56:18.437Z,43.22
2023-02-10T11:59:21.481Z,43.32
2023-02-10T12:02:13.942Z,43.59
2023-02-10T12:05:21.538Z,43.76
2023-02-10T12:08:24.781Z,43.88
2023-02-10T12:11:06.349Z,44.00
2023-02-10T12:13:57.029Z,44.20
2023-02-10T12:16:55.541Z,44.24
2023-02-10T12:20:02.940Z,44.35
2023-02-10T12:22:46.298Z,44.44
2023-02-10T12:25:25.314Z,44.62
2023-02-10T12:28:28.653Z,44.92
2023-02-10T12:31:24.583Z,45.01
2023-02-10T12:34:25.560Z,44.95
2023-02-10T12:37:31.220Z,45.17
2023-02-10T12:40:38.171Z,45.27
2023-02-10T12:43:24.677Z,45.30
2023-02-10T12:46:27.096Z,45.55
2023-02-10T12:49:40.874Z,45.54
2023-02-10T12:52:20.361Z,45.72
2023-02-10T12:55:21.494Z,45.68
2023-02-10T12:58:20.157Z,45.61
2023-02-10T13:01:17.877Z,45.70
2023-02-10T13:04:17.543Z,45.79
2023-02-10T13:07:18.738Z,46.02
2023-02-10T13:10:25.072Z,46.21
2023-02-10T13:13:21.218Z,46.17
2023-02-10T13:16:09.466Z,46.15
2023-02-10T13:19:10.997Z,46.31
2023-02-10T13:22:08.423Z,46.32
2023-02-10T13:24:45.986Z,46.30
2023-02-10T13:27:43.150Z,46.41
2023-02-10T13:31:07.963Z,46.41
2023-02-10T13:34:01.535Z,46.13
2023-02-10T13:36:48.520Z,46.14
2023-02-10T13:39:50.608Z,46.59
2023-02-10T13:42:28.920Z,46.89
2023-02-10T13:45:23.725Z,47.11
2023-02-10T13:48:29.291Z,47.27
2023-02-10T13:51:30.083Z,47.34
2023-02-10T13:54:28.074Z,47.70
2023-02-10T13:57:32.465Z,47.95
2023-02-10T14:00:19.126Z,47.98
2023-02-10T14:03:24.599Z,47.99
2023-02-10T14:06:16.755Z,48.42
2023-02-10T14:09:23.440Z,48.41
2023-02-10T14:12:30.637Z,48.55
2023-02-10T14:15:25.978Z,48.84
2023-02-10T14:18:28.478Z,48.74
2023-02-10T14:21:21.106Z,49.02
2023-02-10T14:24:26.639Z,49.16
2023-02-10T14:27:21.409Z,49.10
2023-02-10T14:30:20.642Z,49.05
2023-02-10T14:33:23.104Z,49.19
2023-02-10T14:36:21.658Z,49.37
2023-02-10T14:39:18.901Z,49.48
2023-02-10T14:42:12.975Z,49.71
2023-02-10T14:45:06.280Z,49.70
2023-02-10T14:47:52.658Z,49.89
2023-02-10T14:50:47.492Z,50.00
2023-02-10T14:53:28.882Z,49.91
2023-02-10T14:56:24.890Z,50.12
2023-02-10T14:59:25.095Z,50.37
2023-02-10T15:02:22.251Z,50.55
2023-02-10T15:05:02.066Z,50.72
2023-02-10T15:07:42.501Z,50.59
2023-02-10T15:10:40.650Z,50.72
2023-02-10T15:13:46.040Z,50.66
2023-02-10T15:16:40.613Z,50.85
2023-02-10T15:19:34.806Z,50.49
2023-02-10T15:22:35.905Z,50.35
2023-02-10T15:25:34.479Z,50.33
2023-02-10T15:28:30.901Z,50.35
2023-02-10T15:31:28.048Z,50.30
2023-02-10T15:34:25.382Z,50.25
2023-02-10T15:37:22.891Z,50.16
2023-02-10T15:40:25.324Z,50.19
2023-02-10T15:43:29.578Z,50.13
2023-02-10T15:46:24.293Z,49.97
2023-02-10T15:49:19.262Z,50.11
2023-02-10T15:52:24.364Z,49.73
2023-02-10T15:55:21.671Z,50.08
2023-02-10T15:58:14.488Z,49.87
2023-02-10T16:00:55.541Z,50.00
2023-02-10T16:03:47.734Z,50.21
2023-02-10T16:06:40.718Z,50.05
2023-02-10T16:09:34.763Z,50.20
2023-02-10T16:12:09.990Z,50.18
2023-02-10T16:15:02.143Z,50.33
2023-02-10T16:17:57.987Z,50.35
2023-02-10T16:20:50.533Z,50.52
2023-02-10T16:23:43.949Z,50.49
2023-02-10T16:26:36.054Z,50.44
2023-02-10T16:29:30.846Z,50.61
2023-02-10T16:32:10.403Z,50.68
2023-02-10T16:35:02.623Z,50.82
2023-02-10T16:37:55.888Z,51.03
2023-02-10T16:40:41.291Z,51.04
2023-02-10T16:43:33.604Z,51.05
2023-02-10T16:46:26.340Z,51.18
2023-02-10T16:49:20.773Z,50.97
2023-02-10T16:52:12.912Z,50.80
2023-02-10T16:55:05.328Z,50.78
2023-02-10T16:57:37.329Z,51.19
2023-02-10T17:00:30.022Z,51.28
2023-02-10T17:03:23.694Z,51.25
2023-02-10T17:05:58.755Z,51.24
2023-02-10T17:08:51.145Z,51.27
2023-02-10T17:11:43.245Z,51.16
2023-02-10T17:14:35.343Z,51.46
2023-02-10T17:17:24.092Z,51.45
2023-02-10T17:20:21.574Z,51.37
2023-02-10T17:23:15.430Z,51.42
2023-02-10T17:26:08.241Z,51.40
2023-02-10T17:29:00.312Z,51.65
2023-02-10T17:31:52.815Z,51.64
2023-02-10T17:34:45.157Z,51.86
2023-02-10T17:37:16.974Z,51.81
2023-02-10T17:40:25.516Z,51.68
2023-02-10T17:43:18.127Z,51.74
2023-02-10T17:46:10.590Z,51.98
2023-02-10T17:49:03.089Z,52.27
2023-02-10T17:51:56.197Z,52.13
2023-02-10T17:54:34.140Z,52.24
2023-02-10T17:57:27.069Z,52.54
2023-02-10T18:00:02.163Z,52.65
2023-02-10T18:02:54.504Z,52.48
2023-02-10T18:05:48.607Z,52.76
2023-02-10T18:08:40.739Z,52.86
2023-02-10T18:11:33.218Z,52.97
2023-02-10T18:14:26.726Z,52.72
2023-02-10T18:17:18.865Z,52.90
2023-02-10T18:20:12.679Z,52.87
2023-02-10T18:23:04.814Z,53.13
2023-02-10T18:25:57.039Z,53.10
2023-02-10T18:28:50.108Z,52.92
2023-02-10T18:31:32.288Z,53.00
2023-02-10T18:34:24.565Z,53.10
2023-02-10T18:37:07.512Z,53.39
2023-02-10T18:39:48.792Z,53.40
2023-02-10T18:42:40.880Z,53.67
2023-02-10T18:45:33.149Z,53.25
2023-02-10T18:48:25.340Z,53.56
2023-02-10T18:51:18.519Z,53.52
2023-02-10T18:54:10.665Z,53.65
2023-02-10T18:57:03.396Z,53.86
2023-02-10T18:59:55.851Z,53.68
2023-02-10T19:02:48.105Z,53.48
2023-02-10T19:05:40.712Z,53.51
2023-02-10T19:08:33.003Z,53.80
2023-02-10T19:11:25.421Z,54.10
2023-02-10T19:14:18.403Z,53.90
2023-02-10T19:17:10.964Z,54.20
2023-02-10T19:20:03.284Z,54.13
2023-02-10T19:22:55.593Z,53.97
2023-02-10T19:25:47.980Z,53.93
2023-02-10T19:28:27.469Z,53.94
2023-02-10T19:31:20.108Z,53.97
2023-02-10T19:34:13.287Z,53.93
2023-02-10T19:37:05.626Z,54.16
2023-02-10T19:39:37.790Z,54.01
2023-02-10T19:42:30.006Z,54.38
2023-02-10T19:45:22.107Z,54.15
2023-02-10T19:48:14.321Z,54.23
2023-02-10T19:51:11.137Z,54.23
2023-02-10T19:54:03.489Z,54.24
2023-02-10T19:56:55.769Z,54.43
2023-02-10T19:59:47.852Z,54.39
2023-02-10T20:02:40.344Z,54.47
2023-02-10T20:05:33.697Z,54.33
2023-02-10T20:08:25.863Z,54.48
2023-02-10T20:11:19.302Z,54.61
2023-02-10T20:14:11.812Z,54.70
2023-02-10T20:17:04.836Z,54.49
2023-02-10T20:19:56.986Z,54.83
2023-02-10T20:22:37.620Z,54.70
2023-02-10T20:25:29.804Z,54.93
2023-02-10T20:28:22.812Z,54.82
2023-02-10T20:31:15.185Z,54.99
2023-02-10T20:34:07.529Z,54.99
2023-02-10T20:36:59.912Z,55.16
2023-02-10T20:39:52.934Z,54.89
2023-02-10T20:42:48.589Z,54.93
2023-02-10T20:45:40.784Z,54.83
2023-02-10T20:48:33.345Z,54.93
2023-02-10T20:51:25.953Z,55.13
2023-02-10T20:54:18.028Z,55.04
2023-02-10T20:57:01.846Z,54.99
2023-02-10T20:59:54.327Z,54.92
2023-02-10T21:02:46.502Z,55.17
2023-02-10T21:05:38.737Z,55.12
2023-02-10T21:08:20.045Z,55.09
2023-02-10T21:11:14.214Z,55.03
2023-02-10T21:14:06.337Z,55.20
2023-02-10T21:16:58.571Z,55.06
2023-02-10T21:19:50.720Z,55.10
2023-02-10T21:22:42.849Z,55.37
2023-02-10T21:25:24.627Z,55.46
2023-02-10T21:28:16.795Z,55.57
2023-02-10T21:31:14.474Z,55.71
2023-02-10T21:34:07.556Z,55.45
2023-02-10T21:37:02.692Z,55.63
2023-02-10T21:39:55.170Z,55.93
2023-02-10T21:42:47.263Z,55.89
2023-02-10T21:45:40.940Z,55.95
2023-02-10T21:48:33.233Z,55.70
2023-02-10T21:51:25.349Z,55.93
2023-02-10T21:54:18.042Z,55.58
2023-02-10T21:57:11.291Z,55.81
2023-02-10T22:00:03.407Z,56.03
2023-02-10T22:02:57.635Z,55.71
2023-02-10T22:05:57.415Z,55.62
2023-02-10T22:08:49.519Z,55.67
2023-02-10T22:11:41.619Z,55.94
2023-02-10T22:14:33.731Z,56.14
2023-02-10T22:17:25.771Z,56.37
2023-02-10T22:20:18.068Z,56.41
2023-02-10T22:23:10.136Z,56.30
2023-02-10T22:25:51.524Z,56.66
2023-02-10T22:28:44.247Z,56.69
2023-02-10T22:31:37.247Z,56.72
2023-02-10T22:34:29.341Z,56.76
2023-02-10T22:37:21.449Z,56.78
2023-02-10T22:40:13.844Z,56.97
2023-02-10T22:43:05.894Z,57.30
2023-02-10T22:45:38.385Z,57.39
2023-02-10T22:48:30.509Z,57.38
2023-02-10T22:51:24.207Z,57.37
2023-02-10T22:54:16.686Z,57.54
2023-02-10T22:57:08.782Z,57.79
2023-02-10T23:00:00.881Z,57.87
2023-02-10T23:02:54.032Z,57.76
2023-02-10T23:05:46.080Z,57.98
2023-02-10T23:08:38.226Z,57.93
2023-02-10T23:11:32.421Z,57.97
2023-02-10T23:14:24.736Z,58.12
2023-02-10T23:17:16.936Z,58.23
2023-02-10T23:20:10.864Z,58.06
2023-02-10T23:23:05.656Z,58.09
2023-02-10T23:25:57.777Z,58.24
2023-02-10T23:28:39.089Z,58.08
2023-02-10T23:31:31.954Z,58.32
2023-02-10T23:34:24.366Z,58.33
2023-02-10T23:37:16.431Z,58.36
2023-02-10T23:39:51.107Z,58.44
2023-02-10T23:42:33.110Z,58.27
2023-02-10T23:45:25.278Z,58.41
2023-02-10T23:48:17.558Z,58.48
2023-02-10T23:51:11.924Z,58.38
2023-02-10T23:53:54.065Z,58.46
2023-02-10T23:56:46.470Z,58.60
2023-02-10T23:59:39.011Z,58.67
